sensor_id;sensor_type;location;lat;lon;timestamp;temperature;humidity
33699;DHT22;20032;52.436;13.312;2022-08-30T00:00:30;16.80;99.90
33699;DHT22;20032;52.436;13.312;2022-08-30T00:03:16;16.70;99.90
33699;DHT22;20032;52.436;13.312;2022-08-30T00:05:43;16.70;99.90
33699;DHT22;20032;52.436;13.312;2022-08-30T00:08:09;16.70;99.90
33699;DHT22;20032;52.436;13.312;2022-08-30T00:10:35;16.60;99.90
33699;DHT22;20032;52.436;13.312;2022-08-30T00:13:02;16.70;99.90
33699;DHT22;20032;52.436;13.312;2022-08-30T00:15:27;16.70;99.90
33699;DHT22;20032;52.436;13.312;2022-08-30T00:17:54;16.80;99.90
33699;DHT22;20032;52.436;13.312;2022-08-30T00:20:23;16.80;99.90
33699;DHT22;20032;52.436;13.312;2022-08-30T00:22:48;16.70;99.90
33699;DHT22;20032;52.436;13.312;2022-08-30T00:25:15;16.60;99.90
33699;DHT22;20032;52.436;13.312;2022-08-30T00:27:41;16.70;99.90
33699;DHT22;20032;52.436;13.312;2022-08-30T00:30:08;16.60;99.90
33699;DHT22;20032;52.436;13.312;2022-08-30T00:32:34;16.50;99.90
33699;DHT22;20032;52.436;13.312;2022-08-30T00:34:59;16.50;99.90
33699;DHT22;20032;52.436;13.312;2022-08-30T00:37:25;16.40;99.90
33699;DHT22;20032;52.436;13.312;2022-08-30T00:39:50;16.40;99.90
33699;DHT22;20032;52.436;13.312;2022-08-30T00:42:18;16.40;99.90
33699;DHT22;20032;52.436;13.312;2022-08-30T00:44:44;16.40;99.90
33699;DHT22;20032;52.436;13.312;2022-08-30T00:47:10;16.40;99.90
33699;DHT22;20032;52.436;13.312;2022-08-30T00:49:38;16.40;99.90
33699;DHT22;20032;52.436;13.312;2022-08-30T00:52:06;16.30;99.90
33699;DHT22;20032;52.436;13.312;2022-08-30T00:54:33;16.30;99.90
33699;DHT22;20032;52.436;13.312;2022-08-30T00:57:00;16.20;99.90
33699;DHT22;20032;52.436;13.312;2022-08-30T00:59:26;16.30;99.90
33699;DHT22;20032;52.436;13.312;2022-08-30T01:01:53;16.30;99.90
33699;DHT22;20032;52.436;13.312;2022-08-30T01:04:21;16.20;99.90
33699;DHT22;20032;52.436;13.312;2022-08-30T01:06:47;16.20;99.90
33699;DHT22;20032;52.436;13.312;2022-08-30T01:09:14;16.20;99.90
33699;DHT22;20032;52.436;13.312;2022-08-30T01:11:42;16.20;99.90
33699;DHT22;20032;52.436;13.312;2022-08-30T01:14:09;16.20;99.90
33699;DHT22;20032;52.436;13.312;2022-08-30T01:16:37;16.20;99.90
33699;DHT22;20032;52.436;13.312;2022-08-30T01:19:05;16.10;99.90
33699;DHT22;20032;52.436;13.312;2022-08-30T01:21:41;16.00;99.90
33699;DHT22;20032;52.436;13.312;2022-08-30T01:24:08;16.10;99.90
33699;DHT22;20032;52.436;13.312;2022-08-30T01:26:35;16.20;99.90
33699;DHT22;20032;52.436;13.312;2022-08-30T01:29:06;16.20;99.90
33699;DHT22;20032;52.436;13.312;2022-08-30T01:31:33;16.20;99.90
33699;DHT22;20032;52.436;13.312;2022-08-30T01:34:02;16.30;99.90
33699;DHT22;20032;52.436;13.312;2022-08-30T01:36:29;16.30;99.90
33699;DHT22;20032;52.436;13.312;2022-08-30T01:38:56;16.30;99.90
33699;DHT22;20032;52.436;13.312;2022-08-30T01:41:29;16.10;99.90
33699;DHT22;20032;52.436;13.312;2022-08-30T01:43:59;16.00;99.90
33699;DHT22;20032;52.436;13.312;2022-08-30T01:46:28;16.00;99.90
33699;DHT22;20032;52.436;13.312;2022-08-30T01:48:55;16.10;99.90
33699;DHT22;20032;52.436;13.312;2022-08-30T01:51:23;16.00;99.90
33699;DHT22;20032;52.436;13.312;2022-08-30T01:53:48;16.00;99.90
33699;DHT22;20032;52.436;13.312;2022-08-30T01:56:14;16.00;99.90
33699;DHT22;20032;52.436;13.312;2022-08-30T01:58:40;16.00;99.90
33699;DHT22;20032;52.436;13.312;2022-08-30T02:01:07;16.00;99.90
33699;DHT22;20032;52.436;13.312;2022-08-30T02:03:34;16.10;99.90
33699;DHT22;20032;52.436;13.312;2022-08-30T02:06:03;16.10;99.90
33699;DHT22;20032;52.436;13.312;2022-08-30T02:08:28;16.10;99.90
33699;DHT22;20032;52.436;13.312;2022-08-30T02:10:54;16.00;99.90
33699;DHT22;20032;52.436;13.312;2022-08-30T02:13:19;16.00;99.90
33699;DHT22;20032;52.436;13.312;2022-08-30T02:15:45;16.00;99.90
33699;DHT22;20032;52.436;13.312;2022-08-30T02:18:11;16.00;99.90
33699;DHT22;20032;52.436;13.312;2022-08-30T02:20:38;16.00;99.90
33699;DHT22;20032;52.436;13.312;2022-08-30T02:23:04;15.90;99.90
33699;DHT22;20032;52.436;13.312;2022-08-30T02:25:29;15.90;99.90
33699;DHT22;20032;52.436;13.312;2022-08-30T02:27:55;16.00;99.90
33699;DHT22;20032;52.436;13.312;2022-08-30T02:30:20;15.90;99.90
33699;DHT22;20032;52.436;13.312;2022-08-30T02:32:46;15.80;99.90
33699;DHT22;20032;52.436;13.312;2022-08-30T02:35:12;15.70;99.90
33699;DHT22;20032;52.436;13.312;2022-08-30T02:37:37;15.70;99.90
33699;DHT22;20032;52.436;13.312;2022-08-30T02:40:03;15.70;99.90
33699;DHT22;20032;52.436;13.312;2022-08-30T02:42:31;15.70;99.90
33699;DHT22;20032;52.436;13.312;2022-08-30T02:44:57;15.60;99.90
33699;DHT22;20032;52.436;13.312;2022-08-30T02:47:22;15.50;99.90
33699;DHT22;20032;52.436;13.312;2022-08-30T02:49:48;15.50;99.90
33699;DHT22;20032;52.436;13.312;2022-08-30T02:52:13;15.50;99.90
33699;DHT22;20032;52.436;13.312;2022-08-30T02:54:39;15.50;99.90
33699;DHT22;20032;52.436;13.312;2022-08-30T02:57:04;15.60;99.90
33699;DHT22;20032;52.436;13.312;2022-08-30T02:59:31;15.60;99.90
33699;DHT22;20032;52.436;13.312;2022-08-30T03:01:57;15.50;99.90
33699;DHT22;20032;52.436;13.312;2022-08-30T03:04:22;15.30;99.90
33699;DHT22;20032;52.436;13.312;2022-08-30T03:06:48;15.30;99.90
33699;DHT22;20032;52.436;13.312;2022-08-30T03:09:14;15.40;99.90
33699;DHT22;20032;52.436;13.312;2022-08-30T03:11:39;15.40;99.90
33699;DHT22;20032;52.436;13.312;2022-08-30T03:14:06;15.40;99.90
33699;DHT22;20032;52.436;13.312;2022-08-30T03:16:32;15.50;99.90
33699;DHT22;20032;52.436;13.312;2022-08-30T03:18:57;15.60;99.90
33699;DHT22;20032;52.436;13.312;2022-08-30T03:21:23;15.50;99.90
33699;DHT22;20032;52.436;13.312;2022-08-30T03:23:48;15.60;99.90
33699;DHT22;20032;52.436;13.312;2022-08-30T03:26:14;15.80;99.90
33699;DHT22;20032;52.436;13.312;2022-08-30T03:28:41;15.80;99.90
33699;DHT22;20032;52.436;13.312;2022-08-30T03:31:07;15.90;99.90
33699;DHT22;20032;52.436;13.312;2022-08-30T03:33:35;15.90;99.90
33699;DHT22;20032;52.436;13.312;2022-08-30T03:36:00;16.00;99.90
33699;DHT22;20032;52.436;13.312;2022-08-30T03:38:26;16.00;99.90
33699;DHT22;20032;52.436;13.312;2022-08-30T03:40:51;16.00;99.90
33699;DHT22;20032;52.436;13.312;2022-08-30T03:43:17;16.00;99.90
33699;DHT22;20032;52.436;13.312;2022-08-30T03:45:42;16.00;99.90
33699;DHT22;20032;52.436;13.312;2022-08-30T03:48:09;16.10;99.90
33699;DHT22;20032;52.436;13.312;2022-08-30T03:50:34;16.00;99.90
33699;DHT22;20032;52.436;13.312;2022-08-30T03:53:01;16.00;99.90
33699;DHT22;20032;52.436;13.312;2022-08-30T03:55:27;15.90;99.90
33699;DHT22;20032;52.436;13.312;2022-08-30T03:57:54;15.80;99.90
33699;DHT22;20032;52.436;13.312;2022-08-30T04:00:19;15.80;99.90
33699;DHT22;20032;52.436;13.312;2022-08-30T04:02:45;15.80;99.90
33699;DHT22;20032;52.436;13.312;2022-08-30T04:05:11;15.80;99.90
33699;DHT22;20032;52.436;13.312;2022-08-30T04:07:37;15.80;99.90
33699;DHT22;20032;52.436;13.312;2022-08-30T04:10:04;15.70;99.90
33699;DHT22;20032;52.436;13.312;2022-08-30T04:12:30;15.70;99.90
33699;DHT22;20032;52.436;13.312;2022-08-30T04:14:55;15.60;99.90
33699;DHT22;20032;52.436;13.312;2022-08-30T04:17:21;15.70;99.90
33699;DHT22;20032;52.436;13.312;2022-08-30T04:19:46;15.70;99.90
33699;DHT22;20032;52.436;13.312;2022-08-30T04:22:12;15.70;99.90
33699;DHT22;20032;52.436;13.312;2022-08-30T04:24:37;15.70;99.90
33699;DHT22;20032;52.436;13.312;2022-08-30T04:27:06;15.70;99.90
33699;DHT22;20032;52.436;13.312;2022-08-30T04:29:32;15.70;99.90
33699;DHT22;20032;52.436;13.312;2022-08-30T04:31:57;15.60;99.90
33699;DHT22;20032;52.436;13.312;2022-08-30T04:34:23;15.50;99.90
33699;DHT22;20032;52.436;13.312;2022-08-30T04:36:49;15.50;99.90
33699;DHT22;20032;52.436;13.312;2022-08-30T04:39:16;15.60;99.90
33699;DHT22;20032;52.436;13.312;2022-08-30T04:41:41;15.60;99.90
33699;DHT22;20032;52.436;13.312;2022-08-30T04:44:07;15.60;99.90
33699;DHT22;20032;52.436;13.312;2022-08-30T04:46:34;15.60;99.90
33699;DHT22;20032;52.436;13.312;2022-08-30T04:49:00;15.60;99.90
33699;DHT22;20032;52.436;13.312;2022-08-30T04:51:26;15.50;99.90
33699;DHT22;20032;52.436;13.312;2022-08-30T04:53:51;15.60;99.90
33699;DHT22;20032;52.436;13.312;2022-08-30T04:56:23;15.60;99.90
33699;DHT22;20032;52.436;13.312;2022-08-30T04:58:53;15.60;99.90
33699;DHT22;20032;52.436;13.312;2022-08-30T05:01:23;15.60;99.90
33699;DHT22;20032;52.436;13.312;2022-08-30T05:03:50;15.60;99.90
33699;DHT22;20032;52.436;13.312;2022-08-30T05:06:17;15.60;99.90
33699;DHT22;20032;52.436;13.312;2022-08-30T05:08:43;15.60;99.90
33699;DHT22;20032;52.436;13.312;2022-08-30T05:11:09;15.70;99.90
33699;DHT22;20032;52.436;13.312;2022-08-30T05:13:35;15.80;99.90
33699;DHT22;20032;52.436;13.312;2022-08-30T05:16:03;15.90;99.90
33699;DHT22;20032;52.436;13.312;2022-08-30T05:18:29;16.00;99.90
33699;DHT22;20032;52.436;13.312;2022-08-30T05:21:13;16.10;99.90
33699;DHT22;20032;52.436;13.312;2022-08-30T05:23:39;16.20;99.90
33699;DHT22;20032;52.436;13.312;2022-08-30T05:26:06;16.30;99.90
33699;DHT22;20032;52.436;13.312;2022-08-30T05:28:33;16.40;99.90
33699;DHT22;20032;52.436;13.312;2022-08-30T05:30:59;16.40;99.90
33699;DHT22;20032;52.436;13.312;2022-08-30T05:33:24;16.40;99.90
33699;DHT22;20032;52.436;13.312;2022-08-30T05:35:50;16.40;99.90
33699;DHT22;20032;52.436;13.312;2022-08-30T05:38:16;16.40;99.90
33699;DHT22;20032;52.436;13.312;2022-08-30T05:40:43;16.40;99.90
33699;DHT22;20032;52.436;13.312;2022-08-30T05:43:10;16.50;99.90
33699;DHT22;20032;52.436;13.312;2022-08-30T05:45:36;16.60;99.90
33699;DHT22;20032;52.436;13.312;2022-08-30T05:48:03;16.60;99.90
33699;DHT22;20032;52.436;13.312;2022-08-30T05:50:28;16.70;99.90
33699;DHT22;20032;52.436;13.312;2022-08-30T05:52:54;16.80;99.90
33699;DHT22;20032;52.436;13.312;2022-08-30T05:55:20;16.80;99.90
33699;DHT22;20032;52.436;13.312;2022-08-30T05:57:46;16.80;99.90
33699;DHT22;20032;52.436;13.312;2022-08-30T06:00:14;16.90;99.90
33699;DHT22;20032;52.436;13.312;2022-08-30T06:02:42;16.90;99.90
33699;DHT22;20032;52.436;13.312;2022-08-30T06:05:08;17.00;99.90
33699;DHT22;20032;52.436;13.312;2022-08-30T06:07:34;17.00;99.90
33699;DHT22;20032;52.436;13.312;2022-08-30T06:10:00;17.00;99.90
33699;DHT22;20032;52.436;13.312;2022-08-30T06:12:26;17.10;99.90
33699;DHT22;20032;52.436;13.312;2022-08-30T06:14:52;17.20;99.90
33699;DHT22;20032;52.436;13.312;2022-08-30T06:17:17;17.30;99.90
33699;DHT22;20032;52.436;13.312;2022-08-30T06:19:43;17.40;99.90
33699;DHT22;20032;52.436;13.312;2022-08-30T06:22:08;17.50;99.90
33699;DHT22;20032;52.436;13.312;2022-08-30T06:24:33;17.60;99.90
33699;DHT22;20032;52.436;13.312;2022-08-30T06:27:01;17.70;99.90
33699;DHT22;20032;52.436;13.312;2022-08-30T06:29:26;17.70;99.90
33699;DHT22;20032;52.436;13.312;2022-08-30T06:31:52;17.80;99.90
33699;DHT22;20032;52.436;13.312;2022-08-30T06:34:17;17.80;99.90
33699;DHT22;20032;52.436;13.312;2022-08-30T06:36:43;17.80;99.90
33699;DHT22;20032;52.436;13.312;2022-08-30T06:39:09;17.70;99.90
33699;DHT22;20032;52.436;13.312;2022-08-30T06:41:37;17.70;99.90
33699;DHT22;20032;52.436;13.312;2022-08-30T06:44:04;17.80;99.90
33699;DHT22;20032;52.436;13.312;2022-08-30T06:46:32;17.90;99.90
33699;DHT22;20032;52.436;13.312;2022-08-30T06:48:59;17.90;99.90
33699;DHT22;20032;52.436;13.312;2022-08-30T06:51:27;18.00;99.90
33699;DHT22;20032;52.436;13.312;2022-08-30T06:53:55;18.10;99.90
33699;DHT22;20032;52.436;13.312;2022-08-30T06:56:21;18.10;99.90
33699;DHT22;20032;52.436;13.312;2022-08-30T06:58:47;18.30;99.90
33699;DHT22;20032;52.436;13.312;2022-08-30T07:01:17;18.40;99.90
33699;DHT22;20032;52.436;13.312;2022-08-30T07:03:43;18.40;99.90
33699;DHT22;20032;52.436;13.312;2022-08-30T07:06:09;18.40;99.90
33699;DHT22;20032;52.436;13.312;2022-08-30T07:08:35;18.40;99.90
33699;DHT22;20032;52.436;13.312;2022-08-30T07:11:00;18.50;99.90
33699;DHT22;20032;52.436;13.312;2022-08-30T07:13:26;18.40;99.90
33699;DHT22;20032;52.436;13.312;2022-08-30T07:15:52;18.40;99.90
33699;DHT22;20032;52.436;13.312;2022-08-30T07:18:19;18.40;99.90
33699;DHT22;20032;52.436;13.312;2022-08-30T07:21:08;18.60;99.90
33699;DHT22;20032;52.436;13.312;2022-08-30T07:23:34;18.70;99.90
33699;DHT22;20032;52.436;13.312;2022-08-30T07:26:03;18.80;99.90
33699;DHT22;20032;52.436;13.312;2022-08-30T07:28:29;18.80;99.90
33699;DHT22;20032;52.436;13.312;2022-08-30T07:30:55;18.80;99.90
33699;DHT22;20032;52.436;13.312;2022-08-30T07:33:20;18.80;99.90
33699;DHT22;20032;52.436;13.312;2022-08-30T07:35:47;18.70;99.90
33699;DHT22;20032;52.436;13.312;2022-08-30T07:38:13;18.60;99.90
33699;DHT22;20032;52.436;13.312;2022-08-30T07:40:39;18.50;99.90
33699;DHT22;20032;52.436;13.312;2022-08-30T07:43:04;18.50;99.90
33699;DHT22;20032;52.436;13.312;2022-08-30T07:45:31;18.60;99.90
33699;DHT22;20032;52.436;13.312;2022-08-30T07:47:56;18.80;99.90
33699;DHT22;20032;52.436;13.312;2022-08-30T07:50:22;18.90;99.90
33699;DHT22;20032;52.436;13.312;2022-08-30T07:52:48;19.00;99.90
33699;DHT22;20032;52.436;13.312;2022-08-30T07:55:13;19.10;99.90
33699;DHT22;20032;52.436;13.312;2022-08-30T07:57:39;19.20;99.90
33699;DHT22;20032;52.436;13.312;2022-08-30T08:00:05;19.30;99.90
33699;DHT22;20032;52.436;13.312;2022-08-30T08:02:31;19.50;99.90
33699;DHT22;20032;52.436;13.312;2022-08-30T08:04:57;19.70;99.90
33699;DHT22;20032;52.436;13.312;2022-08-30T08:07:23;19.80;99.90
33699;DHT22;20032;52.436;13.312;2022-08-30T08:09:49;19.80;99.90
33699;DHT22;20032;52.436;13.312;2022-08-30T08:12:14;19.90;99.90
33699;DHT22;20032;52.436;13.312;2022-08-30T08:14:40;20.00;99.90
33699;DHT22;20032;52.436;13.312;2022-08-30T08:17:05;20.10;99.90
33699;DHT22;20032;52.436;13.312;2022-08-30T08:19:31;20.00;99.90
33699;DHT22;20032;52.436;13.312;2022-08-30T08:21:58;20.00;99.90
33699;DHT22;20032;52.436;13.312;2022-08-30T08:24:26;19.90;99.90
33699;DHT22;20032;52.436;13.312;2022-08-30T08:26:52;19.80;99.90
33699;DHT22;20032;52.436;13.312;2022-08-30T08:29:19;19.80;99.90
33699;DHT22;20032;52.436;13.312;2022-08-30T08:31:44;19.80;99.90
33699;DHT22;20032;52.436;13.312;2022-08-30T08:34:12;19.80;99.90
33699;DHT22;20032;52.436;13.312;2022-08-30T08:36:38;19.90;99.90
33699;DHT22;20032;52.436;13.312;2022-08-30T08:39:06;19.90;99.90
33699;DHT22;20032;52.436;13.312;2022-08-30T08:44:45;20.00;99.90
33699;DHT22;20032;52.436;13.312;2022-08-30T08:47:17;20.10;99.90
33699;DHT22;20032;52.436;13.312;2022-08-30T08:49:46;19.90;99.90
33699;DHT22;20032;52.436;13.312;2022-08-30T08:52:20;19.90;99.90
33699;DHT22;20032;52.436;13.312;2022-08-30T08:55:11;19.80;99.90
33699;DHT22;20032;52.436;13.312;2022-08-30T08:57:37;19.70;99.90
33699;DHT22;20032;52.436;13.312;2022-08-30T09:00:05;19.70;99.90
33699;DHT22;20032;52.436;13.312;2022-08-30T09:02:40;19.60;99.90
33699;DHT22;20032;52.436;13.312;2022-08-30T09:05:08;19.60;99.90
33699;DHT22;20032;52.436;13.312;2022-08-30T09:07:39;19.60;99.90
33699;DHT22;20032;52.436;13.312;2022-08-30T09:10:06;19.60;99.90
33699;DHT22;20032;52.436;13.312;2022-08-30T09:12:32;19.60;99.90
33699;DHT22;20032;52.436;13.312;2022-08-30T09:15:06;19.60;99.90
33699;DHT22;20032;52.436;13.312;2022-08-30T09:17:50;19.70;99.90
33699;DHT22;20032;52.436;13.312;2022-08-30T09:20:29;19.80;99.90
33699;DHT22;20032;52.436;13.312;2022-08-30T09:22:56;19.90;99.90
33699;DHT22;20032;52.436;13.312;2022-08-30T09:25:26;20.00;99.90
33699;DHT22;20032;52.436;13.312;2022-08-30T09:27:53;20.00;99.90
33699;DHT22;20032;52.436;13.312;2022-08-30T09:30:24;20.10;99.90
33699;DHT22;20032;52.436;13.312;2022-08-30T09:35:21;20.10;99.90
33699;DHT22;20032;52.436;13.312;2022-08-30T09:37:54;20.10;99.90
33699;DHT22;20032;52.436;13.312;2022-08-30T09:40:25;20.10;99.90
33699;DHT22;20032;52.436;13.312;2022-08-30T09:43:03;20.20;99.90
33699;DHT22;20032;52.436;13.312;2022-08-30T09:45:33;20.10;99.90
33699;DHT22;20032;52.436;13.312;2022-08-30T09:48:17;20.10;99.90
33699;DHT22;20032;52.436;13.312;2022-08-30T09:50:45;20.10;99.90
33699;DHT22;20032;52.436;13.312;2022-08-30T09:53:18;20.10;99.90
33699;DHT22;20032;52.436;13.312;2022-08-30T09:55:55;19.90;99.90
33699;DHT22;20032;52.436;13.312;2022-08-30T09:58:31;19.90;99.90
33699;DHT22;20032;52.436;13.312;2022-08-30T10:06:14;19.60;99.90
33699;DHT22;20032;52.436;13.312;2022-08-30T10:08:50;19.70;99.90
33699;DHT22;20032;52.436;13.312;2022-08-30T10:14:02;20.00;99.90
33699;DHT22;20032;52.436;13.312;2022-08-30T10:16:38;20.10;99.90
33699;DHT22;20032;52.436;13.312;2022-08-30T10:19:50;20.10;99.90
33699;DHT22;20032;52.436;13.312;2022-08-30T10:24:41;20.30;99.90
33699;DHT22;20032;52.436;13.312;2022-08-30T10:27:12;20.40;99.90
33699;DHT22;20032;52.436;13.312;2022-08-30T10:29:50;20.40;99.90
33699;DHT22;20032;52.436;13.312;2022-08-30T10:32:28;20.40;99.90
33699;DHT22;20032;52.436;13.312;2022-08-30T10:35:02;20.50;99.90
33699;DHT22;20032;52.436;13.312;2022-08-30T10:37:32;20.50;99.90
33699;DHT22;20032;52.436;13.312;2022-08-30T10:40:05;20.60;99.90
33699;DHT22;20032;52.436;13.312;2022-08-30T10:42:57;20.60;99.90
33699;DHT22;20032;52.436;13.312;2022-08-30T10:45:26;20.70;99.90
33699;DHT22;20032;52.436;13.312;2022-08-30T10:48:16;20.80;99.90
33699;DHT22;20032;52.436;13.312;2022-08-30T10:50:47;21.00;99.90
33699;DHT22;20032;52.436;13.312;2022-08-30T10:53:16;21.50;99.90
33699;DHT22;20032;52.436;13.312;2022-08-30T10:55:49;22.00;99.90
33699;DHT22;20032;52.436;13.312;2022-08-30T10:58:16;22.10;99.90
33699;DHT22;20032;52.436;13.312;2022-08-30T11:01:01;22.00;99.90
33699;DHT22;20032;52.436;13.312;2022-08-30T11:03:46;22.10;99.90
33699;DHT22;20032;52.436;13.312;2022-08-30T11:06:43;22.20;99.90
33699;DHT22;20032;52.436;13.312;2022-08-30T11:09:24;22.70;99.90
33699;DHT22;20032;52.436;13.312;2022-08-30T11:12:11;23.20;99.90
33699;DHT22;20032;52.436;13.312;2022-08-30T11:14:42;23.70;99.90
33699;DHT22;20032;52.436;13.312;2022-08-30T11:17:30;24.20;99.90
33699;DHT22;20032;52.436;13.312;2022-08-30T11:19:59;24.60;99.90
33699;DHT22;20032;52.436;13.312;2022-08-30T11:22:29;24.30;99.90
33699;DHT22;20032;52.436;13.312;2022-08-30T11:25:02;23.80;99.90
33699;DHT22;20032;52.436;13.312;2022-08-30T11:33:04;24.40;99.90
33699;DHT22;20032;52.436;13.312;2022-08-30T11:35:51;24.80;99.90
33699;DHT22;20032;52.436;13.312;2022-08-30T11:41:10;24.90;99.90
33699;DHT22;20032;52.436;13.312;2022-08-30T11:52:02;25.50;99.90
33699;DHT22;20032;52.436;13.312;2022-08-30T11:54:46;25.20;99.90
33699;DHT22;20032;52.436;13.312;2022-08-30T11:57:25;24.90;99.90
33699;DHT22;20032;52.436;13.312;2022-08-30T12:00:13;24.80;99.90
33699;DHT22;20032;52.436;13.312;2022-08-30T12:02:59;24.90;99.90
33699;DHT22;20032;52.436;13.312;2022-08-30T12:05:47;25.10;99.90
33699;DHT22;20032;52.436;13.312;2022-08-30T12:11:04;25.40;99.90
33699;DHT22;20032;52.436;13.312;2022-08-30T12:16:22;25.60;99.90
33699;DHT22;20032;52.436;13.312;2022-08-30T12:18:52;26.40;99.90
33699;DHT22;20032;52.436;13.312;2022-08-30T12:21:24;26.60;99.90
33699;DHT22;20032;52.436;13.312;2022-08-30T12:24:17;26.30;99.90
33699;DHT22;20032;52.436;13.312;2022-08-30T12:26:49;25.70;99.90
33699;DHT22;20032;52.436;13.312;2022-08-30T12:32:02;25.10;99.90
33699;DHT22;20032;52.436;13.312;2022-08-30T12:34:34;25.10;99.90
33699;DHT22;20032;52.436;13.312;2022-08-30T12:37:05;25.40;99.90
33699;DHT22;20032;52.436;13.312;2022-08-30T12:39:38;25.50;99.90
33699;DHT22;20032;52.436;13.312;2022-08-30T12:42:20;25.30;99.90
33699;DHT22;20032;52.436;13.312;2022-08-30T12:44:50;25.20;99.90
33699;DHT22;20032;52.436;13.312;2022-08-30T12:47:21;25.10;99.90
33699;DHT22;20032;52.436;13.312;2022-08-30T12:49:48;25.00;99.90
33699;DHT22;20032;52.436;13.312;2022-08-30T12:54:53;25.40;99.90
33699;DHT22;20032;52.436;13.312;2022-08-30T12:57:37;25.40;99.90
33699;DHT22;20032;52.436;13.312;2022-08-30T13:00:07;25.10;99.90
33699;DHT22;20032;52.436;13.312;2022-08-30T13:02:43;24.80;99.90
33699;DHT22;20032;52.436;13.312;2022-08-30T13:05:32;24.70;99.90
33699;DHT22;20032;52.436;13.312;2022-08-30T13:08:20;24.70;99.90
33699;DHT22;20032;52.436;13.312;2022-08-30T13:10:49;24.70;99.90
33699;DHT22;20032;52.436;13.312;2022-08-30T13:13:29;24.80;99.90
33699;DHT22;20032;52.436;13.312;2022-08-30T13:15:55;24.80;99.90
33699;DHT22;20032;52.436;13.312;2022-08-30T13:18:26;24.80;99.90
33699;DHT22;20032;52.436;13.312;2022-08-30T13:21:11;25.00;99.90
33699;DHT22;20032;52.436;13.312;2022-08-30T13:23:36;24.90;99.90
33699;DHT22;20032;52.436;13.312;2022-08-30T13:26:05;24.70;99.90
33699;DHT22;20032;52.436;13.312;2022-08-30T13:28:45;24.70;99.90
33699;DHT22;20032;52.436;13.312;2022-08-30T13:31:11;24.60;99.90
33699;DHT22;20032;52.436;13.312;2022-08-30T13:33:36;24.30;99.90
33699;DHT22;20032;52.436;13.312;2022-08-30T13:36:02;24.10;99.90
33699;DHT22;20032;52.436;13.312;2022-08-30T13:38:28;24.10;99.90
33699;DHT22;20032;52.436;13.312;2022-08-30T13:40:53;24.00;99.90
33699;DHT22;20032;52.436;13.312;2022-08-30T13:43:19;23.80;99.90
33699;DHT22;20032;52.436;13.312;2022-08-30T13:45:44;23.70;99.90
33699;DHT22;20032;52.436;13.312;2022-08-30T13:48:11;23.70;99.90
33699;DHT22;20032;52.436;13.312;2022-08-30T13:50:38;23.70;99.90
33699;DHT22;20032;52.436;13.312;2022-08-30T13:53:04;23.50;99.90
33699;DHT22;20032;52.436;13.312;2022-08-30T13:55:30;23.60;99.90
33699;DHT22;20032;52.436;13.312;2022-08-30T13:57:55;23.50;99.90
33699;DHT22;20032;52.436;13.312;2022-08-30T14:00:22;23.50;99.90
33699;DHT22;20032;52.436;13.312;2022-08-30T14:02:48;23.50;99.90
33699;DHT22;20032;52.436;13.312;2022-08-30T14:05:14;23.50;99.90
33699;DHT22;20032;52.436;13.312;2022-08-30T14:07:39;23.60;99.90
33699;DHT22;20032;52.436;13.312;2022-08-30T14:10:07;23.70;99.90
33699;DHT22;20032;52.436;13.312;2022-08-30T14:12:33;23.80;99.90
33699;DHT22;20032;52.436;13.312;2022-08-30T14:14:58;23.80;99.90
33699;DHT22;20032;52.436;13.312;2022-08-30T14:17:25;23.70;99.90
33699;DHT22;20032;52.436;13.312;2022-08-30T14:19:54;23.70;99.90
33699;DHT22;20032;52.436;13.312;2022-08-30T14:22:19;23.70;99.90
33699;DHT22;20032;52.436;13.312;2022-08-30T14:24:45;23.80;99.90
33699;DHT22;20032;52.436;13.312;2022-08-30T14:27:10;23.70;99.90
33699;DHT22;20032;52.436;13.312;2022-08-30T14:29:36;23.70;99.90
33699;DHT22;20032;52.436;13.312;2022-08-30T14:32:02;23.70;99.90
33699;DHT22;20032;52.436;13.312;2022-08-30T14:34:28;23.50;99.90
33699;DHT22;20032;52.436;13.312;2022-08-30T14:36:53;23.50;99.90
33699;DHT22;20032;52.436;13.312;2022-08-30T14:39:21;23.50;99.90
33699;DHT22;20032;52.436;13.312;2022-08-30T14:41:49;23.50;99.90
33699;DHT22;20032;52.436;13.312;2022-08-30T14:44:17;23.40;99.90
33699;DHT22;20032;52.436;13.312;2022-08-30T14:46:43;23.40;99.90
33699;DHT22;20032;52.436;13.312;2022-08-30T14:49:09;23.50;99.90
33699;DHT22;20032;52.436;13.312;2022-08-30T14:51:35;23.60;99.90
33699;DHT22;20032;52.436;13.312;2022-08-30T14:54:00;23.40;99.90
33699;DHT22;20032;52.436;13.312;2022-08-30T14:56:26;23.30;99.90
33699;DHT22;20032;52.436;13.312;2022-08-30T14:58:53;23.20;99.90
33699;DHT22;20032;52.436;13.312;2022-08-30T15:01:19;23.10;99.90
33699;DHT22;20032;52.436;13.312;2022-08-30T15:03:45;23.00;99.90
33699;DHT22;20032;52.436;13.312;2022-08-30T15:06:11;23.00;99.90
33699;DHT22;20032;52.436;13.312;2022-08-30T15:08:37;22.80;99.90
33699;DHT22;20032;52.436;13.312;2022-08-30T15:11:10;22.60;99.90
33699;DHT22;20032;52.436;13.312;2022-08-30T15:13:37;22.50;99.90
33699;DHT22;20032;52.436;13.312;2022-08-30T15:16:09;22.50;99.90
33699;DHT22;20032;52.436;13.312;2022-08-30T15:18:35;22.50;99.90
33699;DHT22;20032;52.436;13.312;2022-08-30T15:21:00;22.40;99.90
33699;DHT22;20032;52.436;13.312;2022-08-30T15:23:26;22.40;99.90
33699;DHT22;20032;52.436;13.312;2022-08-30T15:25:51;22.40;99.90
33699;DHT22;20032;52.436;13.312;2022-08-30T15:28:18;22.30;99.90
33699;DHT22;20032;52.436;13.312;2022-08-30T15:30:44;22.30;99.90
33699;DHT22;20032;52.436;13.312;2022-08-30T15:33:10;22.30;99.90
33699;DHT22;20032;52.436;13.312;2022-08-30T15:35:36;22.30;99.90
33699;DHT22;20032;52.436;13.312;2022-08-30T15:38:01;22.30;99.90
33699;DHT22;20032;52.436;13.312;2022-08-30T15:40:27;22.20;99.90
33699;DHT22;20032;52.436;13.312;2022-08-30T15:42:54;22.30;99.90
33699;DHT22;20032;52.436;13.312;2022-08-30T15:45:20;22.20;99.90
33699;DHT22;20032;52.436;13.312;2022-08-30T15:47:45;22.20;99.90
33699;DHT22;20032;52.436;13.312;2022-08-30T15:50:11;22.20;99.90
33699;DHT22;20032;52.436;13.312;2022-08-30T15:52:36;22.20;99.90
33699;DHT22;20032;52.436;13.312;2022-08-30T15:55:03;22.10;99.90
33699;DHT22;20032;52.436;13.312;2022-08-30T15:57:28;22.00;99.90
33699;DHT22;20032;52.436;13.312;2022-08-30T15:59:54;22.00;99.90
33699;DHT22;20032;52.436;13.312;2022-08-30T16:02:20;22.00;99.90
33699;DHT22;20032;52.436;13.312;2022-08-30T16:04:45;21.90;99.90
33699;DHT22;20032;52.436;13.312;2022-08-30T16:07:11;21.90;99.90